createdAt,value
2018-06-02T00:02:04.610Z,54.5
2018-06-02T00:07:05.084Z,54.4
2018-06-02T00:12:04.623Z,54.6
2018-06-02T00:17:05.332Z,54.5
2018-06-02T00:22:04.351Z,54.6
2018-06-02T00:27:04.898Z,54.6
2018-06-02T00:32:09.467Z,54.6
2018-06-02T00:37:05.162Z,54.7
2018-06-02T00:42:04.408Z,54.6
2018-06-02T00:47:05.273Z,54.6
2018-06-02T00:52:04.623Z,54.5
2018-06-02T00:57:04.367Z,54.6
2018-06-02T01:02:04.945Z,54.6
2018-06-02T01:07:04.526Z,54.4
2018-06-02T01:12:04.671Z,54.9
2018-06-02T01:17:04.939Z,54.6
2018-06-02T01:22:04.335Z,54.4
2018-06-02T01:27:04.837Z,54.4
2018-06-02T01:32:04.392Z,54.4
2018-06-02T01:37:05.106Z,54.4
2018-06-02T01:42:04.406Z,54.7
2018-06-02T01:47:05.132Z,54.6
2018-06-02T01:52:04.426Z,54.6
2018-06-02T01:57:05.024Z,54.7
2018-06-02T02:02:04.895Z,54.6
2018-06-02T02:07:05.168Z,54.7
2018-06-02T02:12:04.730Z,54.5
2018-06-02T02:17:04.703Z,54.6
2018-06-02T02:22:04.643Z,54.4
2018-06-02T02:27:04.774Z,54.6
2018-06-02T02:32:06.862Z,54.6
2018-06-02T02:37:04.793Z,54.5
2018-06-02T02:42:04.815Z,54.3
2018-06-02T02:47:15.074Z,54.5
2018-06-02T02:52:04.189Z,54.6
2018-06-02T02:57:04.521Z,54.4
2018-06-02T03:02:20.947Z,54.7
2018-06-02T03:07:04.299Z,54.7
2018-06-02T03:12:04.429Z,54.6
2018-06-02T03:17:25.545Z,54.4
2018-06-02T03:22:04.404Z,54.4
2018-06-02T03:27:04.665Z,54.4
2018-06-02T03:32:20.399Z,54.4
2018-06-02T03:37:05.033Z,54.5
2018-06-02T03:42:04.992Z,54.6
2018-06-02T03:47:19.379Z,54.5
2018-06-02T03:52:04.558Z,54.6
2018-06-02T03:57:04.559Z,54.4
2018-06-02T04:02:20.320Z,54.2
2018-06-02T04:07:04.910Z,54.2
2018-06-02T04:12:04.412Z,54.2
2018-06-02T04:17:20.096Z,54.2
2018-06-02T04:22:04.678Z,54.0
2018-06-02T04:27:04.857Z,53.7
2018-06-02T04:32:19.435Z,53.8
2018-06-02T04:37:04.412Z,53.6
2018-06-02T04:42:04.615Z,53.5
2018-06-02T04:47:19.737Z,53.5
2018-06-02T04:52:04.721Z,53.4
2018-06-02T04:57:04.940Z,53.3
2018-06-02T05:02:20.645Z,53.1
2018-06-02T05:07:04.381Z,53.4
2018-06-02T05:12:04.735Z,53.3
2018-06-02T05:17:20.881Z,53.4
2018-06-02T05:22:05.097Z,53.4
2018-06-02T05:27:04.399Z,53.1
2018-06-02T05:32:20.502Z,53.4
2018-06-02T05:37:04.606Z,53.3
2018-06-02T05:42:04.639Z,53.3
2018-06-02T05:47:22.634Z,53.3
2018-06-02T05:52:05.064Z,53.0
2018-06-02T05:57:04.332Z,53.0
2018-06-02T06:02:21.959Z,53.7
2018-06-02T06:07:04.900Z,53.6
2018-06-02T06:12:05.108Z,53.6
2018-06-02T06:17:18.302Z,53.5
2018-06-02T06:22:04.617Z,53.5
2018-06-02T06:27:04.739Z,53.7
2018-06-02T06:32:20.525Z,53.7
2018-06-02T06:37:05.213Z,54.1
2018-06-02T06:42:04.468Z,54.0
2018-06-02T06:47:22.575Z,54.3
2018-06-02T06:52:04.730Z,54.3
2018-06-02T06:57:04.947Z,54.4
2018-06-02T07:02:22.573Z,54.5
2018-06-02T07:07:04.442Z,54.4
2018-06-02T07:12:04.990Z,54.4
2018-06-02T07:17:20.344Z,54.4
2018-06-02T07:22:05.088Z,54.0
2018-06-02T07:27:04.469Z,54.0
2018-06-02T07:32:23.616Z,53.7
2018-06-02T07:37:04.708Z,53.4
2018-06-02T07:42:04.840Z,53.4
2018-06-02T07:47:23.696Z,53.9
2018-06-02T07:52:04.212Z,54.7
2018-06-02T07:57:04.570Z,54.7
2018-06-02T08:02:22.976Z,54.4
2018-06-02T08:07:05.134Z,54.4
2018-06-02T08:12:04.509Z,54.2
2018-06-02T08:17:19.780Z,54.0
2018-06-02T08:22:04.874Z,53.7
2018-06-02T08:27:05.032Z,53.6
2018-06-02T08:32:22.345Z,54.0
2018-06-02T08:37:04.655Z,54.2
2018-06-02T08:42:04.726Z,54.1
2018-06-02T08:47:21.029Z,54.3
2018-06-02T08:52:04.276Z,54.5
2018-06-02T08:57:04.386Z,54.6
2018-06-02T09:02:22.979Z,54.6
2018-06-02T09:07:04.968Z,55.2
2018-06-02T09:12:04.592Z,55.2
2018-06-02T09:17:17.394Z,55.8
2018-06-02T09:22:04.957Z,56.0
2018-06-02T09:27:05.147Z,56.2
2018-06-02T09:32:23.242Z,55.9
2018-06-02T09:37:04.625Z,56.1
2018-06-02T09:42:04.667Z,56.3
2018-06-02T09:47:24.667Z,56.3
2018-06-02T09:52:04.397Z,57.2
2018-06-02T09:57:04.382Z,57.1
2018-06-02T10:02:21.227Z,57.8
2018-06-02T10:07:05.244Z,57.7
2018-06-02T10:12:04.389Z,57.6
2018-06-02T10:17:15.099Z,57.5
2018-06-02T10:22:04.619Z,57.3
2018-06-02T10:27:04.702Z,57.0
2018-06-02T10:32:21.883Z,56.9
2018-06-02T10:37:04.399Z,55.9
2018-06-02T10:42:04.597Z,54.8
2018-06-02T10:47:23.843Z,54.2
2018-06-02T10:52:04.873Z,54.1
2018-06-02T10:57:05.170Z,54.0
2018-06-02T11:02:23.548Z,54.1
2018-06-02T11:07:04.754Z,54.1
2018-06-02T11:12:04.386Z,54.3
2018-06-02T11:17:22.920Z,54.9
2018-06-02T11:22:04.753Z,54.5
2018-06-02T11:27:04.961Z,54.8
2018-06-02T11:32:21.510Z,54.8
2018-06-02T11:37:04.445Z,54.8
2018-06-02T11:42:04.600Z,55.2
2018-06-02T11:47:24.989Z,55.2
2018-06-02T11:52:04.943Z,54.7
2018-06-02T11:57:05.035Z,55.7
2018-06-02T12:02:23.303Z,56.1
2018-06-02T12:07:04.626Z,56.0
2018-06-02T12:12:04.914Z,56.1
2018-06-02T12:17:23.088Z,56.0
2018-06-02T12:22:04.513Z,55.7
2018-06-02T12:27:04.728Z,56.2
2018-06-02T12:32:24.426Z,56.3
2018-06-02T12:37:04.653Z,56.3
2018-06-02T12:42:04.673Z,55.8
2018-06-02T12:47:21.260Z,56.2
2018-06-02T12:52:04.909Z,57.2
2018-06-02T12:57:05.020Z,57.2
2018-06-02T13:02:22.952Z,57.0
2018-06-02T13:07:04.566Z,56.9
2018-06-02T13:12:04.770Z,56.5
2018-06-02T13:17:19.737Z,56.4
2018-06-02T13:22:04.258Z,55.1
2018-06-02T13:27:04.455Z,55.1
2018-06-02T13:32:24.085Z,54.5
2018-06-02T13:37:04.932Z,54.3
2018-06-02T13:42:05.012Z,54.4
2018-06-02T13:47:25.758Z,54.4
2018-06-02T13:52:04.504Z,54.2
2018-06-02T13:57:04.613Z,55.2
2018-06-02T14:02:25.483Z,55.3
2018-06-02T14:07:04.682Z,55.3
2018-06-02T14:12:05.122Z,54.8
2018-06-02T14:17:25.261Z,54.6
2018-06-02T14:22:04.591Z,54.0
2018-06-02T14:27:04.721Z,54.1
2018-06-02T14:32:21.519Z,54.1
2018-06-02T14:37:05.132Z,52.9
2018-06-02T14:42:04.326Z,52.9
2018-06-02T14:47:23.803Z,52.2
2018-06-02T14:52:04.658Z,52.2
2018-06-02T14:57:04.889Z,48.1
2018-06-02T15:02:22.241Z,46.3
2018-06-02T15:07:04.404Z,44.7
2018-06-02T15:12:04.747Z,42.5
2018-06-02T15:17:21.752Z,42.4
2018-06-02T15:22:05.067Z,45.5
2018-06-02T15:27:05.185Z,48.6
2018-06-02T15:32:19.760Z,51.7
2018-06-02T15:37:04.542Z,51.7
2018-06-02T15:42:04.680Z,47.5
2018-06-02T15:47:18.431Z,47.5
2018-06-02T15:52:04.814Z,42.3
2018-06-02T15:57:04.827Z,43.7
2018-06-02T16:02:17.855Z,38.7
2018-06-02T16:07:04.362Z,38.4
2018-06-02T16:12:04.640Z,37.8
2018-06-02T16:17:16.469Z,40.6
2018-06-02T16:22:04.974Z,45.7
2018-06-02T16:27:05.103Z,43.8
2018-06-02T16:32:14.388Z,48.0
2018-06-02T16:37:04.611Z,42.5
2018-06-02T16:42:04.523Z,42.5
2018-06-02T16:47:16.485Z,41.9
2018-06-02T16:52:04.880Z,45.1
2018-06-02T16:57:04.954Z,43.8
2018-06-02T17:02:14.242Z,40.8
2018-06-02T17:07:04.594Z,40.4
2018-06-02T17:12:04.673Z,43.7
2018-06-02T17:17:13.023Z,44.1
2018-06-02T17:22:05.037Z,39.5
2018-06-02T17:27:05.003Z,39.5
2018-06-02T17:32:12.314Z,39.7
2018-06-02T17:37:04.427Z,39.7
2018-06-02T17:42:04.366Z,40.0
2018-06-02T17:47:10.378Z,40.8
2018-06-02T17:52:04.503Z,41.7
2018-06-02T17:57:04.559Z,41.7
2018-06-02T18:02:13.025Z,43.5
2018-06-02T18:07:05.066Z,43.5
2018-06-02T18:12:04.524Z,47.2
2018-06-02T18:17:19.031Z,51.8
2018-06-02T18:22:04.859Z,54.1
2018-06-02T18:27:04.971Z,55.2
2018-06-02T18:32:19.171Z,55.4
2018-06-02T18:37:04.663Z,55.6
2018-06-02T18:42:04.487Z,55.7
2018-06-02T18:47:19.296Z,55.6
2018-06-02T18:52:04.768Z,55.7
2018-06-02T18:57:04.846Z,55.7
2018-06-02T19:02:19.849Z,56.6
2018-06-02T19:07:04.399Z,55.9
2018-06-02T19:12:04.694Z,56.1
2018-06-02T19:17:18.894Z,56.1
2018-06-02T19:22:04.305Z,56.0
2018-06-02T19:27:04.603Z,56.1
2018-06-02T19:32:20.025Z,56.2
2018-06-02T19:37:04.485Z,56.2
2018-06-02T19:42:04.436Z,56.3
2018-06-02T19:47:23.638Z,56.2
2018-06-02T19:52:04.092Z,56.2
2018-06-02T19:57:04.157Z,56.1
2018-06-02T20:02:15.240Z,56.0
2018-06-02T20:07:04.662Z,55.9
2018-06-02T20:12:05.049Z,55.8
2018-06-02T20:17:08.411Z,55.8
2018-06-02T20:22:04.524Z,55.7
2018-06-02T20:27:04.549Z,55.8
2018-06-02T20:32:06.103Z,55.8
2018-06-02T20:37:04.769Z,55.9
2018-06-02T20:42:04.819Z,55.9
2018-06-02T20:47:05.341Z,55.7
2018-06-02T20:52:04.994Z,55.6
2018-06-02T20:57:05.050Z,55.6
2018-06-02T21:02:04.701Z,55.2
2018-06-02T21:07:04.584Z,55.5
2018-06-02T21:12:04.782Z,55.5
2018-06-02T21:17:05.017Z,55.4
2018-06-02T21:22:04.135Z,55.5
2018-06-02T21:27:04.262Z,55.5
2018-06-02T21:32:04.647Z,55.5
2018-06-02T21:37:04.478Z,55.5
2018-06-02T21:42:04.405Z,55.5
2018-06-02T21:47:15.235Z,55.5
2018-06-02T21:52:04.685Z,55.4
2018-06-02T21:57:04.729Z,55.5
2018-06-02T22:02:05.506Z,55.6
2018-06-02T22:07:04.495Z,55.4
2018-06-02T22:12:04.462Z,55.4
2018-06-02T22:22:17.385Z,55.0
2018-06-02T22:27:16.763Z,55.2
2018-06-02T22:32:21.419Z,55.3
2018-06-02T22:37:16.938Z,55.3
2018-06-02T22:42:16.764Z,55.4
2018-06-02T22:47:16.316Z,55.4
2018-06-02T22:52:16.219Z,55.4
2018-06-02T22:57:16.768Z,55.3
2018-06-02T23:02:18.191Z,55.5
2018-06-02T23:07:16.983Z,55.2
2018-06-02T23:12:04.711Z,55.4
2018-06-02T23:17:14.037Z,55.4
2018-06-02T23:22:04.557Z,55.5
2018-06-02T23:27:05.152Z,55.5
2018-06-02T23:32:04.765Z,55.5
2018-06-02T23:37:05.387Z,55.5
2018-06-02T23:42:04.446Z,55.5
2018-06-02T23:47:05.011Z,55.4
2018-06-02T23:52:04.439Z,55.4
2018-06-02T23:57:04.909Z,55.4
